createdAt,value
2023-04-12T00:01:22.805Z,8.5
2023-04-12T00:07:15.054Z,12.4
2023-04-12T00:13:05.689Z,8.9
2023-04-12T00:18:58.413Z,7.5
2023-04-12T00:24:53.099Z,9.5
2023-04-12T00:30:46.600Z,5.4
2023-04-12T00:36:43.449Z,8.9
2023-04-12T00:42:40.085Z,7.1
2023-04-12T00:48:37.412Z,11.1
2023-04-12T00:54:29.397Z,7.8
2023-04-12T01:00:22.162Z,7.9
2023-04-12T01:06:16.358Z,7.4
2023-04-12T01:12:14.392Z,7
2023-04-12T01:18:14.047Z,6.8
2023-04-12T01:24:13.625Z,6.3
2023-04-12T01:30:19.242Z,6.8
2023-04-12T01:36:18.083Z,6.5
2023-04-12T01:42:12.184Z,6.4
2023-04-12T01:48:12.587Z,8.4
2023-04-12T01:54:30.458Z,7.4
2023-04-12T02:00:33.356Z,8.1
2023-04-12T02:06:30.824Z,8.7
2023-04-12T02:12:30.493Z,11.3
2023-04-12T02:18:30.202Z,7.9
2023-04-12T02:24:50.178Z,8.3
2023-04-12T02:30:52.859Z,9.4
2023-04-12T02:36:49.175Z,8.7
2023-04-12T02:42:56.950Z,11.3
2023-04-12T02:48:51.109Z,9
2023-04-12T02:54:44.906Z,9.1
2023-04-12T03:00:42.481Z,8.6
2023-04-12T03:06:45.596Z,9.2
2023-04-12T03:12:46.946Z,9.9
2023-04-12T03:18:41.849Z,10.8
2023-04-12T03:24:38.024Z,11
2023-04-12T03:30:34.217Z,9.1
2023-04-12T07:26:26.477Z,3.7
2023-04-12T08:02:14.577Z,4
2023-04-12T09:15:05.456Z,4.8
2023-04-12T09:45:48.916Z,5.5
2023-04-12T09:51:42.068Z,4.2
2023-04-12T10:03:49.348Z,4.8
2023-04-12T10:10:00.146Z,4.8
2023-04-12T11:45:06.773Z,3
2023-04-12T11:57:05.824Z,3.4
2023-04-12T12:40:42.359Z,5.4
2023-04-12T13:11:09.700Z,4.8
2023-04-12T13:17:04.482Z,6.8
2023-04-12T13:23:10.293Z,3.9
2023-04-12T13:29:13.331Z,4.4
2023-04-12T13:35:07.635Z,3
2023-04-12T13:41:00.354Z,3.4
2023-04-12T13:47:05.257Z,2
2023-04-12T13:54:33.391Z,3.2
2023-04-12T14:06:56.190Z,1.5
2023-04-12T14:12:48.919Z,1.3
2023-04-12T14:18:41.076Z,2.1
2023-04-12T14:24:36.447Z,2.2
2023-04-12T14:30:38.916Z,2.2
2023-04-12T14:36:40.189Z,2.2
2023-04-12T14:42:35.384Z,3.9
2023-04-12T14:48:33.270Z,4.1
2023-04-12T14:54:28.297Z,4.6
2023-04-12T15:00:23.531Z,6.4
2023-04-12T15:13:35.241Z,4.6
2023-04-12T15:26:21.159Z,4.7
2023-04-12T15:38:28.361Z,5.1
2023-04-12T16:15:00.177Z,6.1
2023-04-12T16:20:50.256Z,6.1
2023-04-12T16:32:53.586Z,7.8
2023-04-12T16:44:44.255Z,2.1
2023-04-12T16:51:10.355Z,2.5
2023-04-12T16:57:17.006Z,2
2023-04-12T17:03:12.762Z,1.7
2023-04-12T17:09:23.487Z,1.9
2023-04-12T17:15:15.587Z,3
2023-04-12T17:21:14.346Z,2.8
2023-04-12T17:27:07.299Z,3.9
2023-04-12T17:33:04.552Z,2.6
2023-04-12T17:38:57.415Z,3.3
2023-04-12T17:44:51.357Z,3.5
2023-04-12T17:50:43.570Z,2.6
2023-04-12T17:56:36.509Z,2.4
2023-04-12T18:02:32.471Z,2.1
2023-04-12T18:08:26.822Z,3
2023-04-12T18:14:51.696Z,3.4
2023-04-12T18:20:42.881Z,2.1
2023-04-12T18:26:38.001Z,3.9
2023-04-12T18:32:45.435Z,4.4
2023-04-12T18:38:51.741Z,4.8
2023-04-12T18:44:44.681Z,4.1
2023-04-12T18:50:37.228Z,4
2023-04-12T18:56:49.271Z,4
2023-04-12T19:02:41.258Z,5.2
2023-04-12T19:08:38.717Z,2.7
2023-04-12T19:27:01.428Z,4.1
2023-04-12T19:33:08.336Z,6
2023-04-12T19:45:35.770Z,3.7
2023-04-12T19:51:38.468Z,4.6
2023-04-12T19:57:53.141Z,5
2023-04-12T20:03:44.319Z,5.9
2023-04-12T20:09:35.058Z,5.8
2023-04-12T20:15:27.530Z,6.8
2023-04-12T20:21:46.723Z,4.5
2023-04-12T20:40:39.601Z,4.3
2023-04-12T20:47:05.786Z,2.7
2023-04-12T21:05:25.370Z,2.7
2023-04-12T22:05:02.430Z,1.6
2023-04-12T22:17:12.560Z,2.4
2023-04-12T23:17:24.557Z,2.8
2023-04-12T23:23:48.289Z,3.1
2023-04-12T23:30:16.027Z,3.7
